createdAt,value
2017-12-28T00:01:33.189Z,33.8
2017-12-28T00:11:57.560Z,26.6
2017-12-28T00:21:32.430Z,26.0
2017-12-28T00:31:33.717Z,31.3
2017-12-28T00:41:33.180Z,36.0
2017-12-28T00:51:32.846Z,37.8
2017-12-28T01:01:32.382Z,33.8
2017-12-28T01:12:00.247Z,36.8
2017-12-28T01:21:32.795Z,32.7
2017-12-28T01:31:34.638Z,33.9
2017-12-28T01:41:32.691Z,40.9
2017-12-28T02:01:31.005Z,49.2
2017-12-28T02:11:34.162Z,50.2
2017-12-28T02:22:10.838Z,47.9
2017-12-28T02:31:34.321Z,42.3
2017-12-28T02:41:56.568Z,47.7
2017-12-28T02:51:32.268Z,45.8
2017-12-28T03:01:32.194Z,42.7
2017-12-28T03:12:04.655Z,34.7
2017-12-28T03:21:32.103Z,41.8
2017-12-28T03:31:50.585Z,34.6
2017-12-28T03:41:28.344Z,28.6
2017-12-28T03:51:33.458Z,25.2
2017-12-28T04:01:27.823Z,20.9
2017-12-28T04:22:00.179Z,13.1
2017-12-28T04:31:34.070Z,11.7
2017-12-28T04:41:32.823Z,13.5
2017-12-28T04:51:33.375Z,16.9
2017-12-28T05:01:32.620Z,14.5
2017-12-28T05:11:49.737Z,11.2
2017-12-28T05:21:32.552Z,12.9
2017-12-28T05:31:33.090Z,15.7
2017-12-28T05:41:32.625Z,11.9
2017-12-28T05:51:32.831Z,9.1
2017-12-28T06:01:40.676Z,8.4
2017-12-28T06:11:33.473Z,7.6
2017-12-28T06:21:44.837Z,13.9
2017-12-28T06:31:32.047Z,15.1
2017-12-28T06:41:34.175Z,11.9
2017-12-28T07:01:31.855Z,24.3
2017-12-28T07:11:32.613Z,16.6
2017-12-28T07:21:32.767Z,16.5
2017-12-28T07:31:32.352Z,16.2
2017-12-28T07:41:32.950Z,18.1
2017-12-28T07:51:33.049Z,22.3
2017-12-28T08:01:27.986Z,31.1
2017-12-28T08:11:32.964Z,22.5
2017-12-28T08:21:32.864Z,23.7
2017-12-28T08:31:29.479Z,27.1
2017-12-28T08:41:27.493Z,20.6
2017-12-28T08:51:33.199Z,27.7
2017-12-28T09:01:32.237Z,22.1
2017-12-28T09:11:27.970Z,25.7
2017-12-28T09:21:32.079Z,23.2
2017-12-28T09:31:32.571Z,25.0
2017-12-28T09:41:27.665Z,33.5
2017-12-28T09:51:28.752Z,37.3
2017-12-28T10:01:33.327Z,29.8
2017-12-28T10:11:34.056Z,31.3
2017-12-28T10:21:33.637Z,32.9
2017-12-28T10:41:32.532Z,40.4
2017-12-28T10:51:32.872Z,44.3
2017-12-28T11:01:31.794Z,47.3
2017-12-28T11:11:33.232Z,36.5
2017-12-28T11:21:32.608Z,34.7
2017-12-28T11:31:32.636Z,41.9
2017-12-28T11:41:31.827Z,39.3
2017-12-28T11:51:29.120Z,34.8
2017-12-28T12:01:32.873Z,28.7
2017-12-28T12:11:33.592Z,34.4
2017-12-28T12:21:27.249Z,35.6
2017-12-28T12:31:32.548Z,41.8
2017-12-28T12:41:27.131Z,33.3
2017-12-28T12:51:28.336Z,36.5
2017-12-28T13:01:26.749Z,39.3
2017-12-28T13:11:32.634Z,44.1
2017-12-28T13:21:28.278Z,37.4
2017-12-28T13:31:47.867Z,51.5
2017-12-28T13:41:32.017Z,40.6
2017-12-28T13:51:32.065Z,48.2
2017-12-28T14:01:32.059Z,50.0
2017-12-28T14:11:32.859Z,48.2
2017-12-28T14:21:32.484Z,49.5
2017-12-28T14:31:33.601Z,57.2
2017-12-28T14:41:32.657Z,57.6
2017-12-28T14:51:33.080Z,54.4
2017-12-28T15:11:32.564Z,53.8
2017-12-28T15:21:27.091Z,48.0
2017-12-28T15:31:31.917Z,48.7
2017-12-28T15:41:33.047Z,115.7
2017-12-28T15:51:26.792Z,66.9
2017-12-28T16:01:28.673Z,66.6
2017-12-28T16:11:27.210Z,71.0
2017-12-28T16:21:34.461Z,63.0
2017-12-28T16:31:33.786Z,56.8
2017-12-28T16:41:27.328Z,51.9
2017-12-28T16:51:30.253Z,57.8
2017-12-28T17:01:50.547Z,30.6
2017-12-28T17:11:27.325Z,26.3
2017-12-28T17:21:28.725Z,21.1
2017-12-28T17:31:33.784Z,26.1
2017-12-28T17:41:29.345Z,18.1
2017-12-28T17:51:30.014Z,20.3
2017-12-28T18:01:26.296Z,41.2
2017-12-28T18:11:28.539Z,31.0
2017-12-28T18:21:35.846Z,24.7
2017-12-28T18:31:31.879Z,25.7
2017-12-28T18:41:32.758Z,24.5
2017-12-28T18:51:30.461Z,26.3
2017-12-28T19:01:26.686Z,28.7
2017-12-28T19:11:34.241Z,23.4
2017-12-28T19:21:33.135Z,26.3
2017-12-28T19:31:31.836Z,26.2
2017-12-28T19:41:27.258Z,26.8
2017-12-28T19:51:27.026Z,32.0
2017-12-28T20:01:31.761Z,32.0
2017-12-28T20:11:28.901Z,31.9
2017-12-28T20:21:29.616Z,32.9
2017-12-28T20:31:26.865Z,36.1
2017-12-28T20:41:26.920Z,35.7
2017-12-28T20:51:28.911Z,43.4
2017-12-28T21:01:28.086Z,39.1
2017-12-28T21:11:28.314Z,43.8
2017-12-28T21:21:27.256Z,50.8
2017-12-28T21:31:27.620Z,45.8
2017-12-28T21:41:28.534Z,54.9
2017-12-28T21:51:27.916Z,36.7
2017-12-28T22:01:28.029Z,32.4
2017-12-28T22:11:26.193Z,17.7
2017-12-28T22:21:28.113Z,16.2
2017-12-28T22:31:26.323Z,14.2
2017-12-28T22:41:27.394Z,13.6
2017-12-28T22:51:26.781Z,13.5
2017-12-28T23:01:28.978Z,16.2
2017-12-28T23:11:27.752Z,15.8
2017-12-28T23:21:28.433Z,11.7
2017-12-28T23:31:27.183Z,13.6
2017-12-28T23:41:26.942Z,11.1
2017-12-28T23:51:28.078Z,11.9
